Pagrindinis puslapis
METAR-TAF:

METAR-TAF

Oro uostai :

Ainas, Jungtiniai Arabų Emyratai

platuma: 24-16N, ilguma: 055-36E, Aukštis: 265 m

Dabartinis oras

Ataskaita buvo paskelbta 17 minutes, ne 04:00 UTC
Vėjas 5 kt iš Šiaurės/Šiaurės Rytų
Temperatūra 12°C
Drėgmė 76%
Slėgis 1020 hPa
Matomumas: 7000 m

METAR: OMAL 300400Z 03005KT 7000 NSC 12/08 Q1020 NOSIG

Laikas: 08:17 (04:17 UTC)

Prognozė

Ataskaita buvo paskelbta 5 valandos ir 17 minutes, ne 23:00 UTC
Prognozė galioja nuo 30 metu 00 UTC su 31 metu 06 UTC
Vėjas 2 kt nuo kintamojo kryptimis
Matomumas 10 km arba daugiau
nėra debesų žemiau 1500 m ir nėra kamuolinių lietaus debesų
Tapsmas
nuo 30 metu 06 UTC su 30 metu 08 UTC
Vėjas 8 kt iš Šiaurės Vakarų
Tapsmas
nuo 30 metu 21 UTC su 30 metu 23 UTC
Vėjas 5 kt iš Rytų/Šiaurės Rytų
Tapsmas
nuo 31 metu 04 UTC su 31 metu 06 UTC
Vėjas 11 kt iš Pietų/Pietryčių

TAF: OMAL 292300Z 3000/3106 VRB02KT CAVOK BECMG 3006/3008 32008KT BECMG 3021/3023 06005KT BECMG 3104/3106 15011KT

Orai ataskaitas ir orų prognozės (METAR, TAF).

turimą stotys yra geltonos ir raudonos taškus žemėlapyje.

Perkelti pele per norėdami pamatyti stoties vardą.

Tada spustelėkite, norėdami matyti oro stebėjimo ir prognozės.

Norėdami pakeisti žemėlapį: spustelėkite ant žalios mygtukų su juodo kryžiaus žemyn,; žalią mygtuką su brūkšneliu, jei norite nutolinti; arba žalių rodyklių gretimoms žemėlapius.


METAR-TAF: